sensor_id;sensor_type;location;lat;lon;timestamp;P1;durP1;ratioP1;P2;durP2;ratioP2
18411;SDS011;27097;51.738;19.472;2023-09-19T00:00:52;16.65;;;10.32;;
18411;SDS011;27097;51.738;19.472;2023-09-19T00:03:22;17.05;;;10.70;;
18411;SDS011;27097;51.738;19.472;2023-09-19T00:05:51;19.33;;;10.35;;
18411;SDS011;27097;51.738;19.472;2023-09-19T00:08:17;14.70;;;10.68;;
18411;SDS011;27097;51.738;19.472;2023-09-19T00:10:48;14.25;;;10.32;;
18411;SDS011;27097;51.738;19.472;2023-09-19T00:13:15;18.95;;;10.45;;
18411;SDS011;27097;51.738;19.472;2023-09-19T00:15:42;15.75;;;10.07;;
18411;SDS011;27097;51.738;19.472;2023-09-19T00:18:14;14.82;;;10.48;;
18411;SDS011;27097;51.738;19.472;2023-09-19T00:20:42;23.20;;;10.77;;
18411;SDS011;27097;51.738;19.472;2023-09-19T00:23:14;14.35;;;10.00;;
18411;SDS011;27097;51.738;19.472;2023-09-19T00:25:41;16.08;;;10.77;;
18411;SDS011;27097;51.738;19.472;2023-09-19T00:28:08;12.88;;;10.30;;
18411;SDS011;27097;51.738;19.472;2023-09-19T00:30:35;16.95;;;10.80;;
18411;SDS011;27097;51.738;19.472;2023-09-19T00:33:03;16.85;;;11.18;;
18411;SDS011;27097;51.738;19.472;2023-09-19T00:35:32;17.85;;;10.75;;
18411;SDS011;27097;51.738;19.472;2023-09-19T00:37:59;15.18;;;10.10;;
18411;SDS011;27097;51.738;19.472;2023-09-19T00:40:28;16.90;;;10.52;;
18411;SDS011;27097;51.738;19.472;2023-09-19T00:42:57;14.27;;;10.23;;
18411;SDS011;27097;51.738;19.472;2023-09-19T00:45:25;17.38;;;10.90;;
18411;SDS011;27097;51.738;19.472;2023-09-19T00:47:53;16.38;;;10.73;;
18411;SDS011;27097;51.738;19.472;2023-09-19T00:50:22;16.25;;;10.25;;
18411;SDS011;27097;51.738;19.472;2023-09-19T00:52:50;18.25;;;10.50;;
18411;SDS011;27097;51.738;19.472;2023-09-19T00:55:21;16.15;;;10.85;;
18411;SDS011;27097;51.738;19.472;2023-09-19T00:57:50;17.83;;;10.40;;
18411;SDS011;27097;51.738;19.472;2023-09-19T01:00:17;15.05;;;10.40;;
18411;SDS011;27097;51.738;19.472;2023-09-19T01:02:45;18.88;;;11.20;;
18411;SDS011;27097;51.738;19.472;2023-09-19T01:05:12;14.30;;;10.15;;
18411;SDS011;27097;51.738;19.472;2023-09-19T01:07:40;14.02;;;10.15;;
18411;SDS011;27097;51.738;19.472;2023-09-19T01:10:10;18.13;;;10.68;;
18411;SDS011;27097;51.738;19.472;2023-09-19T01:12:45;15.68;;;10.75;;
18411;SDS011;27097;51.738;19.472;2023-09-19T01:15:25;14.88;;;10.55;;
18411;SDS011;27097;51.738;19.472;2023-09-19T01:18:11;15.57;;;10.90;;
18411;SDS011;27097;51.738;19.472;2023-09-19T01:20:50;17.88;;;10.48;;
18411;SDS011;27097;51.738;19.472;2023-09-19T01:23:25;15.80;;;11.00;;
18411;SDS011;27097;51.738;19.472;2023-09-19T01:29:05;17.42;;;11.60;;
18411;SDS011;27097;51.738;19.472;2023-09-19T01:31:55;15.40;;;10.55;;
18411;SDS011;27097;51.738;19.472;2023-09-19T01:34:26;15.95;;;10.85;;
18411;SDS011;27097;51.738;19.472;2023-09-19T01:36:53;19.02;;;11.27;;
18411;SDS011;27097;51.738;19.472;2023-09-19T01:39:20;14.93;;;10.77;;
18411;SDS011;27097;51.738;19.472;2023-09-19T01:41:51;18.10;;;11.63;;
18411;SDS011;27097;51.738;19.472;2023-09-19T01:44:24;18.17;;;12.05;;
18411;SDS011;27097;51.738;19.472;2023-09-19T01:46:58;19.10;;;11.20;;
18411;SDS011;27097;51.738;19.472;2023-09-19T01:49:37;17.25;;;11.18;;
18411;SDS011;27097;51.738;19.472;2023-09-19T01:52:12;16.52;;;10.95;;
18411;SDS011;27097;51.738;19.472;2023-09-19T01:54:41;17.70;;;11.57;;
18411;SDS011;27097;51.738;19.472;2023-09-19T01:57:16;15.57;;;11.10;;
18411;SDS011;27097;51.738;19.472;2023-09-19T01:59:49;17.48;;;11.95;;
18411;SDS011;27097;51.738;19.472;2023-09-19T02:02:22;20.42;;;11.27;;
18411;SDS011;27097;51.738;19.472;2023-09-19T02:04:51;20.00;;;11.80;;
18411;SDS011;27097;51.738;19.472;2023-09-19T02:07:18;19.17;;;12.15;;
18411;SDS011;27097;51.738;19.472;2023-09-19T02:09:45;15.77;;;11.43;;
18411;SDS011;27097;51.738;19.472;2023-09-19T02:12:13;16.23;;;11.40;;
18411;SDS011;27097;51.738;19.472;2023-09-19T02:14:40;16.90;;;11.45;;
18411;SDS011;27097;51.738;19.472;2023-09-19T02:17:07;18.38;;;11.95;;
18411;SDS011;27097;51.738;19.472;2023-09-19T02:19:38;15.35;;;10.75;;
18411;SDS011;27097;51.738;19.472;2023-09-19T02:22:05;17.77;;;11.45;;
18411;SDS011;27097;51.738;19.472;2023-09-19T02:24:35;16.80;;;12.10;;
18411;SDS011;27097;51.738;19.472;2023-09-19T02:27:03;18.52;;;11.85;;
18411;SDS011;27097;51.738;19.472;2023-09-19T02:29:30;18.17;;;12.05;;
18411;SDS011;27097;51.738;19.472;2023-09-19T02:31:57;16.25;;;11.38;;
18411;SDS011;27097;51.738;19.472;2023-09-19T02:34:24;18.13;;;11.38;;
18411;SDS011;27097;51.738;19.472;2023-09-19T02:36:53;18.17;;;12.02;;
18411;SDS011;27097;51.738;19.472;2023-09-19T02:39:21;18.25;;;12.40;;
18411;SDS011;27097;51.738;19.472;2023-09-19T02:41:48;17.15;;;11.15;;
18411;SDS011;27097;51.738;19.472;2023-09-19T02:44:15;15.45;;;11.10;;
18411;SDS011;27097;51.738;19.472;2023-09-19T02:46:42;17.08;;;11.70;;
18411;SDS011;27097;51.738;19.472;2023-09-19T02:49:09;19.45;;;11.55;;
18411;SDS011;27097;51.738;19.472;2023-09-19T02:51:36;16.83;;;10.80;;
18411;SDS011;27097;51.738;19.472;2023-09-19T02:54:04;15.60;;;11.10;;
18411;SDS011;27097;51.738;19.472;2023-09-19T02:56:31;17.65;;;11.82;;
18411;SDS011;27097;51.738;19.472;2023-09-19T02:58:58;16.42;;;12.20;;
18411;SDS011;27097;51.738;19.472;2023-09-19T03:01:25;16.52;;;11.30;;
18411;SDS011;27097;51.738;19.472;2023-09-19T03:03:53;16.55;;;11.43;;
18411;SDS011;27097;51.738;19.472;2023-09-19T03:06:20;15.57;;;11.48;;
18411;SDS011;27097;51.738;19.472;2023-09-19T03:08:47;17.13;;;11.27;;
18411;SDS011;27097;51.738;19.472;2023-09-19T03:11:16;18.05;;;11.35;;
18411;SDS011;27097;51.738;19.472;2023-09-19T03:13:50;17.60;;;11.70;;
18411;SDS011;27097;51.738;19.472;2023-09-19T03:16:17;15.45;;;11.38;;
18411;SDS011;27097;51.738;19.472;2023-09-19T03:18:46;18.33;;;11.25;;
18411;SDS011;27097;51.738;19.472;2023-09-19T03:21:13;18.63;;;11.95;;
18411;SDS011;27097;51.738;19.472;2023-09-19T03:23:40;16.75;;;11.40;;
18411;SDS011;27097;51.738;19.472;2023-09-19T03:26:10;17.48;;;11.65;;
18411;SDS011;27097;51.738;19.472;2023-09-19T03:28:38;18.50;;;11.18;;
18411;SDS011;27097;51.738;19.472;2023-09-19T03:31:06;16.50;;;11.63;;
18411;SDS011;27097;51.738;19.472;2023-09-19T03:33:33;18.15;;;11.77;;
18411;SDS011;27097;51.738;19.472;2023-09-19T03:36:00;17.63;;;11.48;;
18411;SDS011;27097;51.738;19.472;2023-09-19T03:38:29;16.52;;;11.25;;
18411;SDS011;27097;51.738;19.472;2023-09-19T03:40:56;21.05;;;12.18;;
18411;SDS011;27097;51.738;19.472;2023-09-19T03:43:23;16.15;;;11.48;;
18411;SDS011;27097;51.738;19.472;2023-09-19T03:45:51;19.30;;;11.32;;
18411;SDS011;27097;51.738;19.472;2023-09-19T03:48:19;17.92;;;11.63;;
18411;SDS011;27097;51.738;19.472;2023-09-19T03:50:46;17.67;;;11.32;;
18411;SDS011;27097;51.738;19.472;2023-09-19T03:53:13;17.65;;;11.35;;
18411;SDS011;27097;51.738;19.472;2023-09-19T03:55:40;16.80;;;11.98;;
18411;SDS011;27097;51.738;19.472;2023-09-19T03:58:07;16.80;;;11.60;;
18411;SDS011;27097;51.738;19.472;2023-09-19T04:00:34;17.13;;;11.68;;
18411;SDS011;27097;51.738;19.472;2023-09-19T04:03:02;18.35;;;11.73;;
18411;SDS011;27097;51.738;19.472;2023-09-19T04:05:31;16.98;;;11.45;;
18411;SDS011;27097;51.738;19.472;2023-09-19T04:07:58;18.02;;;11.27;;
18411;SDS011;27097;51.738;19.472;2023-09-19T04:10:25;16.00;;;11.27;;
18411;SDS011;27097;51.738;19.472;2023-09-19T04:12:53;16.48;;;11.70;;
18411;SDS011;27097;51.738;19.472;2023-09-19T04:15:21;18.27;;;11.48;;
18411;SDS011;27097;51.738;19.472;2023-09-19T04:17:48;18.38;;;11.30;;
18411;SDS011;27097;51.738;19.472;2023-09-19T04:20:17;17.75;;;11.68;;
18411;SDS011;27097;51.738;19.472;2023-09-19T04:22:44;16.45;;;11.77;;
18411;SDS011;27097;51.738;19.472;2023-09-19T04:25:12;16.83;;;11.98;;
18411;SDS011;27097;51.738;19.472;2023-09-19T04:27:39;16.55;;;11.50;;
18411;SDS011;27097;51.738;19.472;2023-09-19T04:30:07;19.15;;;11.82;;
18411;SDS011;27097;51.738;19.472;2023-09-19T04:32:37;19.05;;;11.15;;
18411;SDS011;27097;51.738;19.472;2023-09-19T04:35:05;15.73;;;11.15;;
18411;SDS011;27097;51.738;19.472;2023-09-19T04:37:36;20.20;;;12.05;;
18411;SDS011;27097;51.738;19.472;2023-09-19T04:40:06;18.65;;;11.93;;
18411;SDS011;27097;51.738;19.472;2023-09-19T04:42:37;15.57;;;11.38;;
18411;SDS011;27097;51.738;19.472;2023-09-19T04:45:05;16.70;;;11.93;;
18411;SDS011;27097;51.738;19.472;2023-09-19T04:47:34;19.30;;;11.70;;
18411;SDS011;27097;51.738;19.472;2023-09-19T04:50:05;16.60;;;11.50;;
18411;SDS011;27097;51.738;19.472;2023-09-19T04:52:38;16.83;;;11.63;;
18411;SDS011;27097;51.738;19.472;2023-09-19T04:55:07;17.02;;;11.65;;
18411;SDS011;27097;51.738;19.472;2023-09-19T04:57:34;15.85;;;11.45;;
18411;SDS011;27097;51.738;19.472;2023-09-19T05:00:02;17.15;;;11.52;;
18411;SDS011;27097;51.738;19.472;2023-09-19T05:02:32;18.48;;;12.30;;
18411;SDS011;27097;51.738;19.472;2023-09-19T05:04:59;17.08;;;11.80;;
18411;SDS011;27097;51.738;19.472;2023-09-19T05:07:26;20.13;;;11.85;;
18411;SDS011;27097;51.738;19.472;2023-09-19T05:09:54;21.40;;;12.18;;
18411;SDS011;27097;51.738;19.472;2023-09-19T05:12:21;21.13;;;11.35;;
18411;SDS011;27097;51.738;19.472;2023-09-19T05:14:48;18.23;;;12.20;;
18411;SDS011;27097;51.738;19.472;2023-09-19T05:17:15;18.30;;;12.02;;
18411;SDS011;27097;51.738;19.472;2023-09-19T05:19:42;19.50;;;11.88;;
18411;SDS011;27097;51.738;19.472;2023-09-19T05:22:11;20.13;;;11.77;;
18411;SDS011;27097;51.738;19.472;2023-09-19T05:24:38;16.88;;;11.90;;
18411;SDS011;27097;51.738;19.472;2023-09-19T05:27:06;17.73;;;12.20;;
18411;SDS011;27097;51.738;19.472;2023-09-19T05:29:33;16.25;;;11.77;;
18411;SDS011;27097;51.738;19.472;2023-09-19T05:32:00;18.45;;;11.48;;
18411;SDS011;27097;51.738;19.472;2023-09-19T05:34:28;21.45;;;12.50;;
18411;SDS011;27097;51.738;19.472;2023-09-19T05:36:55;20.75;;;11.90;;
18411;SDS011;27097;51.738;19.472;2023-09-19T05:39:22;29.52;;;12.57;;
18411;SDS011;27097;51.738;19.472;2023-09-19T05:41:49;22.30;;;11.85;;
18411;SDS011;27097;51.738;19.472;2023-09-19T05:44:17;19.70;;;11.93;;
18411;SDS011;27097;51.738;19.472;2023-09-19T05:46:44;22.77;;;12.00;;
18411;SDS011;27097;51.738;19.472;2023-09-19T05:49:13;21.67;;;11.98;;
18411;SDS011;27097;51.738;19.472;2023-09-19T05:51:40;20.52;;;11.93;;
18411;SDS011;27097;51.738;19.472;2023-09-19T05:54:07;19.08;;;12.07;;
18411;SDS011;27097;51.738;19.472;2023-09-19T05:56:36;22.50;;;11.55;;
18411;SDS011;27097;51.738;19.472;2023-09-19T05:59:03;24.98;;;11.98;;
18411;SDS011;27097;51.738;19.472;2023-09-19T06:01:31;23.10;;;11.98;;
18411;SDS011;27097;51.738;19.472;2023-09-19T06:03:59;27.83;;;12.23;;
18411;SDS011;27097;51.738;19.472;2023-09-19T06:06:28;25.60;;;11.68;;
18411;SDS011;27097;51.738;19.472;2023-09-19T06:08:55;21.70;;;11.68;;
18411;SDS011;27097;51.738;19.472;2023-09-19T06:11:22;29.80;;;11.50;;
18411;SDS011;27097;51.738;19.472;2023-09-19T06:13:51;26.48;;;11.75;;
18411;SDS011;27097;51.738;19.472;2023-09-19T06:16:18;23.63;;;11.52;;
18411;SDS011;27097;51.738;19.472;2023-09-19T06:18:48;20.35;;;10.90;;
18411;SDS011;27097;51.738;19.472;2023-09-19T06:21:17;25.17;;;10.25;;
18411;SDS011;27097;51.738;19.472;2023-09-19T06:23:44;16.60;;;10.43;;
18411;SDS011;27097;51.738;19.472;2023-09-19T06:26:17;24.52;;;10.35;;
18411;SDS011;27097;51.738;19.472;2023-09-19T06:28:43;22.77;;;10.52;;
18411;SDS011;27097;51.738;19.472;2023-09-19T06:31:10;27.02;;;10.20;;
18411;SDS011;27097;51.738;19.472;2023-09-19T06:33:37;23.88;;;10.73;;
18411;SDS011;27097;51.738;19.472;2023-09-19T06:36:06;26.45;;;9.65;;
18411;SDS011;27097;51.738;19.472;2023-09-19T06:38:33;22.60;;;10.07;;
18411;SDS011;27097;51.738;19.472;2023-09-19T06:41:01;22.60;;;10.52;;
18411;SDS011;27097;51.738;19.472;2023-09-19T06:46:04;21.55;;;10.30;;
18411;SDS011;27097;51.738;19.472;2023-09-19T06:48:38;23.52;;;10.35;;
18411;SDS011;27097;51.738;19.472;2023-09-19T06:51:07;22.77;;;10.75;;
18411;SDS011;27097;51.738;19.472;2023-09-19T06:53:35;21.77;;;9.65;;
18411;SDS011;27097;51.738;19.472;2023-09-19T06:56:02;25.95;;;10.18;;
18411;SDS011;27097;51.738;19.472;2023-09-19T06:58:29;22.27;;;10.18;;
18411;SDS011;27097;51.738;19.472;2023-09-19T07:00:56;20.77;;;9.57;;
18411;SDS011;27097;51.738;19.472;2023-09-19T07:03:23;28.15;;;9.73;;
18411;SDS011;27097;51.738;19.472;2023-09-19T07:05:51;18.55;;;9.60;;
18411;SDS011;27097;51.738;19.472;2023-09-19T07:08:22;16.38;;;8.70;;
18411;SDS011;27097;51.738;19.472;2023-09-19T07:10:49;19.55;;;9.02;;
18411;SDS011;27097;51.738;19.472;2023-09-19T07:13:19;18.50;;;8.80;;
18411;SDS011;27097;51.738;19.472;2023-09-19T07:15:46;19.63;;;8.85;;
18411;SDS011;27097;51.738;19.472;2023-09-19T07:18:13;22.95;;;8.25;;
18411;SDS011;27097;51.738;19.472;2023-09-19T07:20:41;16.55;;;8.25;;
18411;SDS011;27097;51.738;19.472;2023-09-19T07:23:13;19.73;;;8.95;;
18411;SDS011;27097;51.738;19.472;2023-09-19T07:25:42;20.45;;;8.27;;
18411;SDS011;27097;51.738;19.472;2023-09-19T07:28:09;16.90;;;8.30;;
18411;SDS011;27097;51.738;19.472;2023-09-19T07:30:36;14.40;;;7.70;;
18411;SDS011;27097;51.738;19.472;2023-09-19T07:33:04;17.08;;;8.00;;
18411;SDS011;27097;51.738;19.472;2023-09-19T07:35:31;17.45;;;7.85;;
18411;SDS011;27097;51.738;19.472;2023-09-19T07:37:58;19.58;;;8.23;;
18411;SDS011;27097;51.738;19.472;2023-09-19T07:40:26;17.92;;;7.95;;
18411;SDS011;27097;51.738;19.472;2023-09-19T07:42:55;18.20;;;7.50;;
18411;SDS011;27097;51.738;19.472;2023-09-19T07:45:22;15.68;;;7.60;;
18411;SDS011;27097;51.738;19.472;2023-09-19T07:47:50;13.02;;;7.55;;
18411;SDS011;27097;51.738;19.472;2023-09-19T07:50:18;16.77;;;7.85;;
18411;SDS011;27097;51.738;19.472;2023-09-19T07:52:46;18.30;;;7.68;;
18411;SDS011;27097;51.738;19.472;2023-09-19T07:55:13;18.00;;;7.40;;
18411;SDS011;27097;51.738;19.472;2023-09-19T07:57:42;14.73;;;7.00;;
18411;SDS011;27097;51.738;19.472;2023-09-19T08:00:11;17.90;;;7.22;;
18411;SDS011;27097;51.738;19.472;2023-09-19T08:02:39;15.38;;;7.55;;
18411;SDS011;27097;51.738;19.472;2023-09-19T08:05:07;16.80;;;7.25;;
18411;SDS011;27097;51.738;19.472;2023-09-19T08:07:36;15.75;;;6.38;;
18411;SDS011;27097;51.738;19.472;2023-09-19T08:10:03;12.48;;;7.10;;
18411;SDS011;27097;51.738;19.472;2023-09-19T08:12:32;14.60;;;7.05;;
18411;SDS011;27097;51.738;19.472;2023-09-19T08:15:00;19.52;;;6.70;;
18411;SDS011;27097;51.738;19.472;2023-09-19T08:17:31;21.85;;;7.57;;
18411;SDS011;27097;51.738;19.472;2023-09-19T08:20:00;18.27;;;7.38;;
18411;SDS011;27097;51.738;19.472;2023-09-19T08:22:30;17.70;;;7.35;;
18411;SDS011;27097;51.738;19.472;2023-09-19T08:24:57;18.40;;;6.78;;
18411;SDS011;27097;51.738;19.472;2023-09-19T08:27:24;15.55;;;6.00;;
18411;SDS011;27097;51.738;19.472;2023-09-19T08:29:52;20.20;;;6.78;;
18411;SDS011;27097;51.738;19.472;2023-09-19T08:32:19;16.08;;;6.28;;
18411;SDS011;27097;51.738;19.472;2023-09-19T08:34:50;15.25;;;6.20;;
18411;SDS011;27097;51.738;19.472;2023-09-19T08:37:17;16.63;;;5.95;;
18411;SDS011;27097;51.738;19.472;2023-09-19T08:39:44;17.42;;;5.55;;
18411;SDS011;27097;51.738;19.472;2023-09-19T08:42:11;16.80;;;6.18;;
18411;SDS011;27097;51.738;19.472;2023-09-19T08:44:38;12.95;;;5.32;;
18411;SDS011;27097;51.738;19.472;2023-09-19T08:47:10;22.75;;;6.13;;
18411;SDS011;27097;51.738;19.472;2023-09-19T08:49:41;13.20;;;5.80;;
18411;SDS011;27097;51.738;19.472;2023-09-19T08:52:19;19.27;;;5.95;;
18411;SDS011;27097;51.738;19.472;2023-09-19T08:54:51;16.35;;;5.80;;
18411;SDS011;27097;51.738;19.472;2023-09-19T08:57:21;20.77;;;5.75;;
18411;SDS011;27097;51.738;19.472;2023-09-19T08:59:49;17.92;;;5.22;;
18411;SDS011;27097;51.738;19.472;2023-09-19T09:02:16;13.30;;;5.30;;
18411;SDS011;27097;51.738;19.472;2023-09-19T09:04:45;15.23;;;5.13;;
18411;SDS011;27097;51.738;19.472;2023-09-19T09:07:12;15.52;;;5.57;;
18411;SDS011;27097;51.738;19.472;2023-09-19T09:09:42;13.65;;;5.07;;
18411;SDS011;27097;51.738;19.472;2023-09-19T09:12:10;17.80;;;5.05;;
18411;SDS011;27097;51.738;19.472;2023-09-19T09:14:38;15.43;;;5.75;;
18411;SDS011;27097;51.738;19.472;2023-09-19T09:17:06;11.43;;;4.97;;
18411;SDS011;27097;51.738;19.472;2023-09-19T09:19:33;10.63;;;4.75;;
18411;SDS011;27097;51.738;19.472;2023-09-19T09:22:07;13.98;;;5.65;;
18411;SDS011;27097;51.738;19.472;2023-09-19T09:24:35;10.40;;;5.13;;
18411;SDS011;27097;51.738;19.472;2023-09-19T09:27:07;14.55;;;4.97;;
18411;SDS011;27097;51.738;19.472;2023-09-19T09:29:41;13.57;;;5.43;;
18411;SDS011;27097;51.738;19.472;2023-09-19T09:32:17;11.25;;;4.68;;
18411;SDS011;27097;51.738;19.472;2023-09-19T09:34:48;10.85;;;5.07;;
18411;SDS011;27097;51.738;19.472;2023-09-19T09:37:17;10.02;;;5.00;;
18411;SDS011;27097;51.738;19.472;2023-09-19T09:39:49;9.10;;;4.93;;
18411;SDS011;27097;51.738;19.472;2023-09-19T09:42:30;12.38;;;5.15;;
18411;SDS011;27097;51.738;19.472;2023-09-19T09:45:12;12.35;;;4.72;;
18411;SDS011;27097;51.738;19.472;2023-09-19T09:47:41;8.68;;;5.35;;
18411;SDS011;27097;51.738;19.472;2023-09-19T09:50:23;9.07;;;5.35;;
18411;SDS011;27097;51.738;19.472;2023-09-19T09:52:54;14.45;;;5.47;;
18411;SDS011;27097;51.738;19.472;2023-09-19T09:55:34;11.15;;;5.35;;
18411;SDS011;27097;51.738;19.472;2023-09-19T09:58:27;10.45;;;5.55;;
18411;SDS011;27097;51.738;19.472;2023-09-19T10:00:55;16.98;;;6.18;;
18411;SDS011;27097;51.738;19.472;2023-09-19T10:03:30;13.05;;;5.85;;
18411;SDS011;27097;51.738;19.472;2023-09-19T10:05:59;12.48;;;6.15;;
18411;SDS011;27097;51.738;19.472;2023-09-19T10:08:34;11.52;;;6.57;;
18411;SDS011;27097;51.738;19.472;2023-09-19T10:11:05;11.43;;;5.63;;
18411;SDS011;27097;51.738;19.472;2023-09-19T10:13:43;15.73;;;6.10;;
18411;SDS011;27097;51.738;19.472;2023-09-19T10:16:12;10.20;;;5.88;;
18411;SDS011;27097;51.738;19.472;2023-09-19T10:18:44;10.48;;;6.05;;
18411;SDS011;27097;51.738;19.472;2023-09-19T10:21:15;10.30;;;6.13;;
18411;SDS011;27097;51.738;19.472;2023-09-19T10:23:47;15.23;;;5.80;;
18411;SDS011;27097;51.738;19.472;2023-09-19T10:26:17;12.82;;;6.00;;
18411;SDS011;27097;51.738;19.472;2023-09-19T10:28:47;10.18;;;5.72;;
18411;SDS011;27097;51.738;19.472;2023-09-19T10:31:17;9.40;;;5.93;;
18411;SDS011;27097;51.738;19.472;2023-09-19T10:33:46;11.25;;;6.30;;
18411;SDS011;27097;51.738;19.472;2023-09-19T10:36:15;12.32;;;6.25;;
18411;SDS011;27097;51.738;19.472;2023-09-19T10:38:45;11.85;;;6.45;;
18411;SDS011;27097;51.738;19.472;2023-09-19T10:41:18;9.48;;;6.05;;
18411;SDS011;27097;51.738;19.472;2023-09-19T10:43:49;9.23;;;6.22;;
18411;SDS011;27097;51.738;19.472;2023-09-19T10:46:19;11.88;;;6.80;;
18411;SDS011;27097;51.738;19.472;2023-09-19T10:48:50;11.05;;;6.63;;
18411;SDS011;27097;51.738;19.472;2023-09-19T10:51:20;9.63;;;6.88;;
18411;SDS011;27097;51.738;19.472;2023-09-19T10:53:51;9.88;;;6.97;;
18411;SDS011;27097;51.738;19.472;2023-09-19T10:56:21;11.95;;;7.32;;
18411;SDS011;27097;51.738;19.472;2023-09-19T10:58:54;11.93;;;7.40;;
18411;SDS011;27097;51.738;19.472;2023-09-19T11:01:40;10.70;;;7.93;;
18411;SDS011;27097;51.738;19.472;2023-09-19T11:04:26;10.02;;;7.07;;
18411;SDS011;27097;51.738;19.472;2023-09-19T11:07:04;10.25;;;7.43;;
18411;SDS011;27097;51.738;19.472;2023-09-19T11:09:46;10.07;;;7.68;;
18411;SDS011;27097;51.738;19.472;2023-09-19T11:27:10;12.48;;;7.35;;
18411;SDS011;27097;51.738;19.472;2023-09-19T11:29:39;10.18;;;7.85;;
18411;SDS011;27097;51.738;19.472;2023-09-19T11:32:06;11.75;;;7.90;;
18411;SDS011;27097;51.738;19.472;2023-09-19T11:34:39;12.07;;;7.82;;
18411;SDS011;27097;51.738;19.472;2023-09-19T11:40:44;9.77;;;7.43;;
18411;SDS011;27097;51.738;19.472;2023-09-19T11:43:32;15.38;;;7.40;;
18411;SDS011;27097;51.738;19.472;2023-09-19T11:46:08;14.98;;;8.25;;
18411;SDS011;27097;51.738;19.472;2023-09-19T11:48:36;8.82;;;7.38;;
18411;SDS011;27097;51.738;19.472;2023-09-19T11:51:24;10.43;;;7.90;;
18411;SDS011;27097;51.738;19.472;2023-09-19T11:53:53;13.15;;;7.20;;
18411;SDS011;27097;51.738;19.472;2023-09-19T11:56:25;9.50;;;7.57;;
18411;SDS011;27097;51.738;19.472;2023-09-19T11:58:54;9.93;;;7.57;;
18411;SDS011;27097;51.738;19.472;2023-09-19T12:01:24;12.38;;;7.90;;
18411;SDS011;27097;51.738;19.472;2023-09-19T12:03:54;9.77;;;6.72;;
18411;SDS011;27097;51.738;19.472;2023-09-19T12:06:24;13.13;;;7.72;;
18411;SDS011;27097;51.738;19.472;2023-09-19T12:08:57;11.13;;;7.95;;
18411;SDS011;27097;51.738;19.472;2023-09-19T12:11:31;13.27;;;7.93;;
18411;SDS011;27097;51.738;19.472;2023-09-19T12:13:59;11.23;;;6.43;;
18411;SDS011;27097;51.738;19.472;2023-09-19T12:16:26;13.10;;;7.32;;
18411;SDS011;27097;51.738;19.472;2023-09-19T12:18:55;8.38;;;6.43;;
18411;SDS011;27097;51.738;19.472;2023-09-19T12:21:25;8.43;;;6.65;;
18411;SDS011;27097;51.738;19.472;2023-09-19T12:24:04;9.85;;;6.80;;
18411;SDS011;27097;51.738;19.472;2023-09-19T12:26:40;13.98;;;5.97;;
18411;SDS011;27097;51.738;19.472;2023-09-19T12:29:15;10.60;;;6.32;;
18411;SDS011;27097;51.738;19.472;2023-09-19T12:31:47;7.82;;;5.30;;
18411;SDS011;27097;51.738;19.472;2023-09-19T12:34:16;8.23;;;5.72;;
18411;SDS011;27097;51.738;19.472;2023-09-19T12:36:46;8.32;;;5.70;;
18411;SDS011;27097;51.738;19.472;2023-09-19T12:39:22;6.25;;;5.10;;
18411;SDS011;27097;51.738;19.472;2023-09-19T12:41:49;7.30;;;5.05;;
18411;SDS011;27097;51.738;19.472;2023-09-19T12:44:18;6.22;;;4.82;;
18411;SDS011;27097;51.738;19.472;2023-09-19T12:46:45;6.78;;;5.10;;
18411;SDS011;27097;51.738;19.472;2023-09-19T12:49:18;5.20;;;4.50;;
18411;SDS011;27097;51.738;19.472;2023-09-19T12:51:47;5.80;;;4.22;;
18411;SDS011;27097;51.738;19.472;2023-09-19T12:54:14;5.68;;;4.00;;
18411;SDS011;27097;51.738;19.472;2023-09-19T12:56:42;5.72;;;4.00;;
18411;SDS011;27097;51.738;19.472;2023-09-19T12:59:11;4.80;;;3.60;;
18411;SDS011;27097;51.738;19.472;2023-09-19T13:01:39;9.70;;;3.83;;
18411;SDS011;27097;51.738;19.472;2023-09-19T13:04:12;5.40;;;3.65;;
18411;SDS011;27097;51.738;19.472;2023-09-19T13:06:43;5.75;;;2.83;;
18411;SDS011;27097;51.738;19.472;2023-09-19T13:09:12;11.55;;;3.72;;
18411;SDS011;27097;51.738;19.472;2023-09-19T13:11:39;5.50;;;3.25;;
18411;SDS011;27097;51.738;19.472;2023-09-19T13:14:16;4.75;;;3.08;;
18411;SDS011;27097;51.738;19.472;2023-09-19T13:16:54;4.53;;;2.80;;
18411;SDS011;27097;51.738;19.472;2023-09-19T13:19:35;3.85;;;2.88;;
18411;SDS011;27097;51.738;19.472;2023-09-19T13:22:03;6.32;;;3.13;;
18411;SDS011;27097;51.738;19.472;2023-09-19T13:24:37;5.45;;;3.05;;
18411;SDS011;27097;51.738;19.472;2023-09-19T13:27:05;3.83;;;3.00;;
18411;SDS011;27097;51.738;19.472;2023-09-19T13:29:34;8.73;;;3.03;;
18411;SDS011;27097;51.738;19.472;2023-09-19T13:32:01;7.65;;;2.90;;
18411;SDS011;27097;51.738;19.472;2023-09-19T13:34:29;4.72;;;2.90;;
18411;SDS011;27097;51.738;19.472;2023-09-19T13:36:56;3.63;;;2.80;;
18411;SDS011;27097;51.738;19.472;2023-09-19T13:39:25;6.40;;;2.90;;
18411;SDS011;27097;51.738;19.472;2023-09-19T13:41:53;4.82;;;3.35;;
18411;SDS011;27097;51.738;19.472;2023-09-19T13:44:20;4.15;;;2.83;;
18411;SDS011;27097;51.738;19.472;2023-09-19T13:46:48;4.07;;;2.92;;
18411;SDS011;27097;51.738;19.472;2023-09-19T13:49:16;4.53;;;2.58;;
18411;SDS011;27097;51.738;19.472;2023-09-19T13:51:43;4.10;;;2.65;;
18411;SDS011;27097;51.738;19.472;2023-09-19T13:54:10;4.10;;;2.60;;
18411;SDS011;27097;51.738;19.472;2023-09-19T13:56:37;4.72;;;2.60;;
18411;SDS011;27097;51.738;19.472;2023-09-19T13:59:07;2.65;;;2.28;;
18411;SDS011;27097;51.738;19.472;2023-09-19T14:01:34;7.38;;;2.92;;
18411;SDS011;27097;51.738;19.472;2023-09-19T14:04:00;4.72;;;2.58;;
18411;SDS011;27097;51.738;19.472;2023-09-19T14:06:27;6.57;;;2.75;;
18411;SDS011;27097;51.738;19.472;2023-09-19T14:08:54;4.43;;;2.67;;
18411;SDS011;27097;51.738;19.472;2023-09-19T14:11:21;3.95;;;2.35;;
18411;SDS011;27097;51.738;19.472;2023-09-19T14:13:48;3.72;;;2.20;;
18411;SDS011;27097;51.738;19.472;2023-09-19T14:16:16;15.90;;;2.90;;
18411;SDS011;27097;51.738;19.472;2023-09-19T14:18:44;5.80;;;2.70;;
18411;SDS011;27097;51.738;19.472;2023-09-19T14:21:12;6.90;;;2.13;;
18411;SDS011;27097;51.738;19.472;2023-09-19T14:23:39;4.65;;;2.10;;
18411;SDS011;27097;51.738;19.472;2023-09-19T14:26:08;5.80;;;2.25;;
18411;SDS011;27097;51.738;19.472;2023-09-19T14:28:35;6.20;;;2.13;;
18411;SDS011;27097;51.738;19.472;2023-09-19T14:31:04;7.07;;;2.13;;
18411;SDS011;27097;51.738;19.472;2023-09-19T14:33:33;6.68;;;2.28;;
18411;SDS011;27097;51.738;19.472;2023-09-19T14:36:02;8.20;;;2.47;;
18411;SDS011;27097;51.738;19.472;2023-09-19T14:38:30;8.00;;;2.28;;
18411;SDS011;27097;51.738;19.472;2023-09-19T14:40:59;9.38;;;2.30;;
18411;SDS011;27097;51.738;19.472;2023-09-19T14:43:26;7.13;;;2.00;;
18411;SDS011;27097;51.738;19.472;2023-09-19T14:45:54;7.93;;;2.22;;
18411;SDS011;27097;51.738;19.472;2023-09-19T14:48:22;5.78;;;2.10;;
18411;SDS011;27097;51.738;19.472;2023-09-19T14:50:52;4.18;;;1.75;;
18411;SDS011;27097;51.738;19.472;2023-09-19T14:53:20;3.63;;;2.05;;
18411;SDS011;27097;51.738;19.472;2023-09-19T14:55:50;2.88;;;1.90;;